sensor_id;sensor_type;location;lat;lon;timestamp;P1;durP1;ratioP1;P2;durP2;ratioP2
9848;SDS011;4963;51.444;6.528;2023-07-31T00:02:25;11.07;;;4.25;;
9848;SDS011;4963;51.444;6.528;2023-07-31T00:04:52;10.63;;;4.95;;
9848;SDS011;4963;51.444;6.528;2023-07-31T00:07:20;8.38;;;4.47;;
9848;SDS011;4963;51.444;6.528;2023-07-31T00:09:47;8.23;;;4.45;;
9848;SDS011;4963;51.444;6.528;2023-07-31T00:12:14;8.05;;;4.65;;
9848;SDS011;4963;51.444;6.528;2023-07-31T00:14:41;10.77;;;4.82;;
9848;SDS011;4963;51.444;6.528;2023-07-31T00:17:08;14.10;;;4.65;;
9848;SDS011;4963;51.444;6.528;2023-07-31T00:19:35;9.90;;;4.72;;
9848;SDS011;4963;51.444;6.528;2023-07-31T00:22:02;9.75;;;4.82;;
9848;SDS011;4963;51.444;6.528;2023-07-31T00:24:30;8.73;;;4.90;;
9848;SDS011;4963;51.444;6.528;2023-07-31T00:26:57;13.18;;;5.78;;
9848;SDS011;4963;51.444;6.528;2023-07-31T00:29:24;15.18;;;5.07;;
9848;SDS011;4963;51.444;6.528;2023-07-31T00:31:51;10.15;;;5.05;;
9848;SDS011;4963;51.444;6.528;2023-07-31T00:34:17;9.93;;;4.82;;
9848;SDS011;4963;51.444;6.528;2023-07-31T00:36:44;11.18;;;5.28;;
9848;SDS011;4963;51.444;6.528;2023-07-31T00:39:11;12.07;;;4.78;;
9848;SDS011;4963;51.444;6.528;2023-07-31T00:41:40;11.38;;;5.95;;
9848;SDS011;4963;51.444;6.528;2023-07-31T00:44:07;9.95;;;5.55;;
9848;SDS011;4963;51.444;6.528;2023-07-31T00:46:33;7.95;;;4.88;;
9848;SDS011;4963;51.444;6.528;2023-07-31T00:49:00;12.85;;;5.57;;
9848;SDS011;4963;51.444;6.528;2023-07-31T00:51:28;9.65;;;4.47;;
9848;SDS011;4963;51.444;6.528;2023-07-31T00:53:54;9.73;;;4.45;;
9848;SDS011;4963;51.444;6.528;2023-07-31T00:56:22;15.68;;;5.45;;
9848;SDS011;4963;51.444;6.528;2023-07-31T00:58:51;10.70;;;5.25;;
9848;SDS011;4963;51.444;6.528;2023-07-31T01:01:18;7.65;;;4.88;;
9848;SDS011;4963;51.444;6.528;2023-07-31T01:03:44;8.88;;;4.97;;
9848;SDS011;4963;51.444;6.528;2023-07-31T01:06:14;11.52;;;5.05;;
9848;SDS011;4963;51.444;6.528;2023-07-31T01:08:49;12.00;;;5.07;;
9848;SDS011;4963;51.444;6.528;2023-07-31T01:11:21;10.15;;;4.75;;
9848;SDS011;4963;51.444;6.528;2023-07-31T01:13:55;10.95;;;4.50;;
9848;SDS011;4963;51.444;6.528;2023-07-31T01:16:22;9.85;;;4.65;;
9848;SDS011;4963;51.444;6.528;2023-07-31T01:18:49;13.00;;;4.50;;
9848;SDS011;4963;51.444;6.528;2023-07-31T01:21:26;8.70;;;4.53;;
9848;SDS011;4963;51.444;6.528;2023-07-31T01:26:57;11.07;;;4.90;;
9848;SDS011;4963;51.444;6.528;2023-07-31T01:29:31;11.25;;;4.28;;
9848;SDS011;4963;51.444;6.528;2023-07-31T01:32:04;10.05;;;4.53;;
9848;SDS011;4963;51.444;6.528;2023-07-31T01:34:32;10.48;;;4.68;;
9848;SDS011;4963;51.444;6.528;2023-07-31T01:37:01;9.25;;;4.30;;
9848;SDS011;4963;51.444;6.528;2023-07-31T01:39:28;9.45;;;4.88;;
9848;SDS011;4963;51.444;6.528;2023-07-31T01:41:56;7.55;;;4.63;;
9848;SDS011;4963;51.444;6.528;2023-07-31T01:44:23;10.43;;;4.68;;
9848;SDS011;4963;51.444;6.528;2023-07-31T01:46:50;8.68;;;4.40;;
9848;SDS011;4963;51.444;6.528;2023-07-31T01:49:17;9.85;;;4.93;;
9848;SDS011;4963;51.444;6.528;2023-07-31T01:51:44;7.03;;;4.28;;
9848;SDS011;4963;51.444;6.528;2023-07-31T01:54:10;9.80;;;4.78;;
9848;SDS011;4963;51.444;6.528;2023-07-31T01:56:37;8.27;;;4.32;;
9848;SDS011;4963;51.444;6.528;2023-07-31T01:59:05;10.20;;;4.28;;
9848;SDS011;4963;51.444;6.528;2023-07-31T02:01:32;12.57;;;5.00;;
9848;SDS011;4963;51.444;6.528;2023-07-31T02:03:59;10.52;;;4.45;;
9848;SDS011;4963;51.444;6.528;2023-07-31T02:06:26;11.70;;;4.43;;
9848;SDS011;4963;51.444;6.528;2023-07-31T02:08:53;10.43;;;4.13;;
9848;SDS011;4963;51.444;6.528;2023-07-31T02:11:20;11.95;;;5.15;;
9848;SDS011;4963;51.444;6.528;2023-07-31T02:13:47;7.68;;;4.80;;
9848;SDS011;4963;51.444;6.528;2023-07-31T02:16:15;11.45;;;5.55;;
9848;SDS011;4963;51.444;6.528;2023-07-31T02:18:42;11.30;;;4.85;;
9848;SDS011;4963;51.444;6.528;2023-07-31T02:21:08;10.53;;;5.50;;
9848;SDS011;4963;51.444;6.528;2023-07-31T02:23:35;10.98;;;5.35;;
9848;SDS011;4963;51.444;6.528;2023-07-31T02:26:02;11.20;;;4.90;;
9848;SDS011;4963;51.444;6.528;2023-07-31T02:28:29;10.38;;;5.15;;
9848;SDS011;4963;51.444;6.528;2023-07-31T02:30:56;9.68;;;4.43;;
9848;SDS011;4963;51.444;6.528;2023-07-31T02:33:24;9.13;;;5.00;;
9848;SDS011;4963;51.444;6.528;2023-07-31T02:35:51;9.45;;;4.28;;
9848;SDS011;4963;51.444;6.528;2023-07-31T02:38:18;10.55;;;5.28;;
9848;SDS011;4963;51.444;6.528;2023-07-31T02:40:45;10.18;;;4.85;;
9848;SDS011;4963;51.444;6.528;2023-07-31T02:43:13;11.88;;;4.82;;
9848;SDS011;4963;51.444;6.528;2023-07-31T02:45:39;10.45;;;4.45;;
9848;SDS011;4963;51.444;6.528;2023-07-31T02:48:06;12.48;;;5.30;;
9848;SDS011;4963;51.444;6.528;2023-07-31T02:50:35;9.60;;;4.80;;
9848;SDS011;4963;51.444;6.528;2023-07-31T02:53:01;9.05;;;4.53;;
9848;SDS011;4963;51.444;6.528;2023-07-31T02:55:28;11.88;;;5.57;;
9848;SDS011;4963;51.444;6.528;2023-07-31T02:57:55;11.82;;;4.95;;
9848;SDS011;4963;51.444;6.528;2023-07-31T03:00:23;10.13;;;4.82;;
9848;SDS011;4963;51.444;6.528;2023-07-31T03:02:50;11.73;;;5.05;;
9848;SDS011;4963;51.444;6.528;2023-07-31T03:05:16;8.90;;;4.88;;
9848;SDS011;4963;51.444;6.528;2023-07-31T03:07:45;8.80;;;4.65;;
9848;SDS011;4963;51.444;6.528;2023-07-31T03:10:11;14.98;;;5.57;;
9848;SDS011;4963;51.444;6.528;2023-07-31T03:12:39;11.25;;;5.18;;
9848;SDS011;4963;51.444;6.528;2023-07-31T03:15:07;13.18;;;4.95;;
9848;SDS011;4963;51.444;6.528;2023-07-31T03:17:34;11.10;;;4.82;;
9848;SDS011;4963;51.444;6.528;2023-07-31T03:20:01;9.70;;;4.72;;
9848;SDS011;4963;51.444;6.528;2023-07-31T03:22:28;9.75;;;4.63;;
9848;SDS011;4963;51.444;6.528;2023-07-31T03:24:56;9.18;;;4.63;;
9848;SDS011;4963;51.444;6.528;2023-07-31T03:27:23;11.23;;;5.28;;
9848;SDS011;4963;51.444;6.528;2023-07-31T03:29:50;13.60;;;5.40;;
9848;SDS011;4963;51.444;6.528;2023-07-31T03:32:17;10.43;;;5.22;;
9848;SDS011;4963;51.444;6.528;2023-07-31T03:34:43;11.15;;;5.22;;
9848;SDS011;4963;51.444;6.528;2023-07-31T03:37:10;11.63;;;5.03;;
9848;SDS011;4963;51.444;6.528;2023-07-31T03:39:37;8.57;;;4.20;;
9848;SDS011;4963;51.444;6.528;2023-07-31T03:42:06;10.02;;;4.45;;
9848;SDS011;4963;51.444;6.528;2023-07-31T03:44:33;15.90;;;4.40;;
9848;SDS011;4963;51.444;6.528;2023-07-31T03:46:59;11.93;;;5.38;;
9848;SDS011;4963;51.444;6.528;2023-07-31T03:49:26;13.05;;;4.88;;
9848;SDS011;4963;51.444;6.528;2023-07-31T03:51:53;7.93;;;4.72;;
9848;SDS011;4963;51.444;6.528;2023-07-31T03:54:20;9.73;;;4.90;;
9848;SDS011;4963;51.444;6.528;2023-07-31T03:56:47;11.48;;;5.40;;
9848;SDS011;4963;51.444;6.528;2023-07-31T03:59:15;10.32;;;4.95;;
9848;SDS011;4963;51.444;6.528;2023-07-31T04:01:42;10.43;;;4.72;;
9848;SDS011;4963;51.444;6.528;2023-07-31T04:04:09;10.38;;;4.72;;
9848;SDS011;4963;51.444;6.528;2023-07-31T04:06:36;10.68;;;5.13;;
9848;SDS011;4963;51.444;6.528;2023-07-31T04:09:03;7.95;;;4.22;;
9848;SDS011;4963;51.444;6.528;2023-07-31T04:11:30;9.55;;;4.65;;
9848;SDS011;4963;51.444;6.528;2023-07-31T04:13:56;9.95;;;4.57;;
9848;SDS011;4963;51.444;6.528;2023-07-31T04:16:24;9.68;;;4.82;;
9848;SDS011;4963;51.444;6.528;2023-07-31T04:18:51;12.20;;;5.30;;
9848;SDS011;4963;51.444;6.528;2023-07-31T04:21:18;10.60;;;4.70;;
9848;SDS011;4963;51.444;6.528;2023-07-31T04:23:45;9.05;;;4.80;;
9848;SDS011;4963;51.444;6.528;2023-07-31T04:26:12;9.23;;;4.57;;
9848;SDS011;4963;51.444;6.528;2023-07-31T04:28:39;9.15;;;4.78;;
9848;SDS011;4963;51.444;6.528;2023-07-31T04:31:05;8.73;;;4.78;;
9848;SDS011;4963;51.444;6.528;2023-07-31T04:33:34;9.02;;;4.45;;
9848;SDS011;4963;51.444;6.528;2023-07-31T04:36:00;10.63;;;4.78;;
9848;SDS011;4963;51.444;6.528;2023-07-31T04:38:27;11.55;;;5.22;;
9848;SDS011;4963;51.444;6.528;2023-07-31T04:40:54;8.93;;;4.40;;
9848;SDS011;4963;51.444;6.528;2023-07-31T04:43:21;10.00;;;4.70;;
9848;SDS011;4963;51.444;6.528;2023-07-31T04:45:48;8.57;;;4.72;;
9848;SDS011;4963;51.444;6.528;2023-07-31T04:48:15;11.50;;;4.90;;
9848;SDS011;4963;51.444;6.528;2023-07-31T04:50:43;6.32;;;4.65;;
9848;SDS011;4963;51.444;6.528;2023-07-31T04:53:10;9.13;;;4.75;;
9848;SDS011;4963;51.444;6.528;2023-07-31T04:55:37;9.82;;;4.65;;
9848;SDS011;4963;51.444;6.528;2023-07-31T04:58:04;11.85;;;5.13;;
9848;SDS011;4963;51.444;6.528;2023-07-31T05:00:31;12.15;;;5.32;;
9848;SDS011;4963;51.444;6.528;2023-07-31T05:02:58;8.68;;;4.78;;
9848;SDS011;4963;51.444;6.528;2023-07-31T05:05:25;8.70;;;4.80;;
9848;SDS011;4963;51.444;6.528;2023-07-31T05:07:53;10.48;;;4.88;;
9848;SDS011;4963;51.444;6.528;2023-07-31T05:10:20;9.23;;;5.15;;
9848;SDS011;4963;51.444;6.528;2023-07-31T05:12:47;14.32;;;5.22;;
9848;SDS011;4963;51.444;6.528;2023-07-31T05:15:13;8.30;;;4.68;;
9848;SDS011;4963;51.444;6.528;2023-07-31T05:17:40;7.88;;;4.57;;
9848;SDS011;4963;51.444;6.528;2023-07-31T05:20:08;7.47;;;4.65;;
9848;SDS011;4963;51.444;6.528;2023-07-31T05:22:35;11.10;;;4.97;;
9848;SDS011;4963;51.444;6.528;2023-07-31T05:25:04;8.05;;;5.18;;
9848;SDS011;4963;51.444;6.528;2023-07-31T05:27:31;7.70;;;4.50;;
9848;SDS011;4963;51.444;6.528;2023-07-31T05:29:58;10.32;;;4.95;;
9848;SDS011;4963;51.444;6.528;2023-07-31T05:32:25;12.18;;;6.03;;
9848;SDS011;4963;51.444;6.528;2023-07-31T05:34:52;7.15;;;4.30;;
9848;SDS011;4963;51.444;6.528;2023-07-31T05:37:19;8.55;;;4.72;;
9848;SDS011;4963;51.444;6.528;2023-07-31T05:39:46;7.85;;;4.70;;
9848;SDS011;4963;51.444;6.528;2023-07-31T05:42:14;7.43;;;4.10;;
9848;SDS011;4963;51.444;6.528;2023-07-31T05:44:41;6.65;;;4.78;;
9848;SDS011;4963;51.444;6.528;2023-07-31T05:47:08;7.93;;;5.43;;
9848;SDS011;4963;51.444;6.528;2023-07-31T05:49:35;7.03;;;4.43;;
9848;SDS011;4963;51.444;6.528;2023-07-31T05:52:02;7.95;;;4.63;;
9848;SDS011;4963;51.444;6.528;2023-07-31T05:54:31;9.05;;;5.07;;
9848;SDS011;4963;51.444;6.528;2023-07-31T05:56:58;9.18;;;5.15;;
9848;SDS011;4963;51.444;6.528;2023-07-31T05:59:27;7.65;;;4.32;;
9848;SDS011;4963;51.444;6.528;2023-07-31T06:01:54;11.82;;;5.15;;
9848;SDS011;4963;51.444;6.528;2023-07-31T06:04:20;8.43;;;5.13;;
9848;SDS011;4963;51.444;6.528;2023-07-31T06:06:50;7.57;;;5.00;;
9848;SDS011;4963;51.444;6.528;2023-07-31T06:09:17;8.13;;;5.00;;
9848;SDS011;4963;51.444;6.528;2023-07-31T06:11:45;7.65;;;5.10;;
9848;SDS011;4963;51.444;6.528;2023-07-31T06:14:12;9.02;;;5.00;;
9848;SDS011;4963;51.444;6.528;2023-07-31T06:16:40;9.48;;;4.95;;
9848;SDS011;4963;51.444;6.528;2023-07-31T06:19:09;8.27;;;5.10;;
9848;SDS011;4963;51.444;6.528;2023-07-31T06:21:36;8.18;;;4.82;;
9848;SDS011;4963;51.444;6.528;2023-07-31T06:24:03;8.63;;;4.68;;
9848;SDS011;4963;51.444;6.528;2023-07-31T06:26:30;7.25;;;4.70;;
9848;SDS011;4963;51.444;6.528;2023-07-31T06:28:57;9.50;;;5.15;;
9848;SDS011;4963;51.444;6.528;2023-07-31T06:31:24;9.27;;;4.75;;
9848;SDS011;4963;51.444;6.528;2023-07-31T06:33:52;12.00;;;5.32;;
9848;SDS011;4963;51.444;6.528;2023-07-31T06:36:20;8.30;;;4.35;;
9848;SDS011;4963;51.444;6.528;2023-07-31T06:38:48;9.07;;;5.22;;
9848;SDS011;4963;51.444;6.528;2023-07-31T06:41:14;6.43;;;4.65;;
9848;SDS011;4963;51.444;6.528;2023-07-31T06:43:41;8.57;;;5.07;;
9848;SDS011;4963;51.444;6.528;2023-07-31T06:46:08;10.95;;;5.55;;
9848;SDS011;4963;51.444;6.528;2023-07-31T06:48:36;11.75;;;5.30;;
9848;SDS011;4963;51.444;6.528;2023-07-31T06:51:04;7.47;;;4.95;;
9848;SDS011;4963;51.444;6.528;2023-07-31T06:53:31;9.63;;;4.78;;
9848;SDS011;4963;51.444;6.528;2023-07-31T06:55:57;7.40;;;4.80;;
9848;SDS011;4963;51.444;6.528;2023-07-31T06:58:24;7.72;;;4.65;;
9848;SDS011;4963;51.444;6.528;2023-07-31T07:00:51;8.35;;;4.80;;
9848;SDS011;4963;51.444;6.528;2023-07-31T07:03:18;6.00;;;4.10;;
9848;SDS011;4963;51.444;6.528;2023-07-31T07:05:45;7.57;;;4.40;;
9848;SDS011;4963;51.444;6.528;2023-07-31T07:08:13;7.35;;;4.38;;
9848;SDS011;4963;51.444;6.528;2023-07-31T07:10:41;8.67;;;5.03;;
9848;SDS011;4963;51.444;6.528;2023-07-31T07:13:08;6.40;;;4.40;;
9848;SDS011;4963;51.444;6.528;2023-07-31T07:15:35;8.27;;;5.07;;
9848;SDS011;4963;51.444;6.528;2023-07-31T07:18:02;8.23;;;4.40;;
9848;SDS011;4963;51.444;6.528;2023-07-31T07:20:29;5.80;;;4.15;;
9848;SDS011;4963;51.444;6.528;2023-07-31T07:22:56;8.50;;;4.63;;
9848;SDS011;4963;51.444;6.528;2023-07-31T07:25:24;7.88;;;4.55;;
9848;SDS011;4963;51.444;6.528;2023-07-31T07:27:51;8.35;;;4.60;;
9848;SDS011;4963;51.444;6.528;2023-07-31T07:30:18;7.85;;;4.30;;
9848;SDS011;4963;51.444;6.528;2023-07-31T07:32:45;6.87;;;4.33;;
9848;SDS011;4963;51.444;6.528;2023-07-31T07:35:11;6.28;;;4.15;;
9848;SDS011;4963;51.444;6.528;2023-07-31T07:37:38;6.65;;;4.20;;
9848;SDS011;4963;51.444;6.528;2023-07-31T07:40:06;4.18;;;3.47;;
9848;SDS011;4963;51.444;6.528;2023-07-31T07:42:35;5.50;;;3.67;;
9848;SDS011;4963;51.444;6.528;2023-07-31T07:45:02;5.23;;;3.37;;
9848;SDS011;4963;51.444;6.528;2023-07-31T07:47:29;5.90;;;3.50;;
9848;SDS011;4963;51.444;6.528;2023-07-31T07:49:56;5.80;;;3.60;;
9848;SDS011;4963;51.444;6.528;2023-07-31T07:52:23;6.07;;;3.40;;
9848;SDS011;4963;51.444;6.528;2023-07-31T07:54:50;5.50;;;3.67;;
9848;SDS011;4963;51.444;6.528;2023-07-31T07:57:17;6.57;;;4.20;;
9848;SDS011;4963;51.444;6.528;2023-07-31T07:59:46;6.83;;;3.37;;
9848;SDS011;4963;51.444;6.528;2023-07-31T08:02:12;5.67;;;3.63;;
9848;SDS011;4963;51.444;6.528;2023-07-31T08:04:39;6.30;;;3.60;;
9848;SDS011;4963;51.444;6.528;2023-07-31T08:07:06;6.43;;;3.10;;
9848;SDS011;4963;51.444;6.528;2023-07-31T08:09:33;5.28;;;3.47;;
9848;SDS011;4963;51.444;6.528;2023-07-31T08:12:00;5.70;;;3.40;;
9848;SDS011;4963;51.444;6.528;2023-07-31T08:14:28;6.20;;;3.57;;
9848;SDS011;4963;51.444;6.528;2023-07-31T08:16:56;4.70;;;3.45;;
9848;SDS011;4963;51.444;6.528;2023-07-31T08:19:23;4.00;;;2.75;;
9848;SDS011;4963;51.444;6.528;2023-07-31T08:21:50;4.80;;;2.83;;
9848;SDS011;4963;51.444;6.528;2023-07-31T08:24:17;4.72;;;3.78;;
9848;SDS011;4963;51.444;6.528;2023-07-31T08:26:44;5.28;;;3.08;;
9848;SDS011;4963;51.444;6.528;2023-07-31T08:29:11;6.63;;;2.83;;
9848;SDS011;4963;51.444;6.528;2023-07-31T08:31:37;5.27;;;3.20;;
9848;SDS011;4963;51.444;6.528;2023-07-31T08:34:06;4.85;;;3.30;;
9848;SDS011;4963;51.444;6.528;2023-07-31T08:36:32;5.43;;;3.10;;
9848;SDS011;4963;51.444;6.528;2023-07-31T08:38:59;4.35;;;3.20;;
9848;SDS011;4963;51.444;6.528;2023-07-31T08:41:27;4.03;;;3.00;;
9848;SDS011;4963;51.444;6.528;2023-07-31T08:43:54;6.00;;;3.42;;
9848;SDS011;4963;51.444;6.528;2023-07-31T08:46:22;6.47;;;3.80;;
9848;SDS011;4963;51.444;6.528;2023-07-31T08:48:50;4.47;;;2.90;;
9848;SDS011;4963;51.444;6.528;2023-07-31T08:51:20;5.47;;;3.33;;
9848;SDS011;4963;51.444;6.528;2023-07-31T08:53:47;5.20;;;3.40;;
9848;SDS011;4963;51.444;6.528;2023-07-31T08:56:14;6.65;;;3.70;;
9848;SDS011;4963;51.444;6.528;2023-07-31T08:58:42;7.05;;;3.33;;
9848;SDS011;4963;51.444;6.528;2023-07-31T09:01:10;6.43;;;3.55;;
9848;SDS011;4963;51.444;6.528;2023-07-31T09:03:37;4.93;;;3.50;;
9848;SDS011;4963;51.444;6.528;2023-07-31T09:06:06;7.03;;;3.83;;
9848;SDS011;4963;51.444;6.528;2023-07-31T09:08:35;5.17;;;3.30;;
9848;SDS011;4963;51.444;6.528;2023-07-31T09:11:07;5.83;;;3.33;;
9848;SDS011;4963;51.444;6.528;2023-07-31T09:13:34;8.15;;;3.75;;
9848;SDS011;4963;51.444;6.528;2023-07-31T09:16:02;4.18;;;2.88;;
9848;SDS011;4963;51.444;6.528;2023-07-31T09:18:29;5.90;;;3.78;;
9848;SDS011;4963;51.444;6.528;2023-07-31T09:21:02;5.85;;;3.38;;
9848;SDS011;4963;51.444;6.528;2023-07-31T09:23:41;4.20;;;3.08;;
9848;SDS011;4963;51.444;6.528;2023-07-31T09:26:08;4.65;;;3.22;;
9848;SDS011;4963;51.444;6.528;2023-07-31T09:28:36;3.47;;;3.13;;
9848;SDS011;4963;51.444;6.528;2023-07-31T09:31:03;4.80;;;3.35;;
9848;SDS011;4963;51.444;6.528;2023-07-31T09:33:30;4.95;;;3.47;;
9848;SDS011;4963;51.444;6.528;2023-07-31T09:35:58;4.53;;;3.15;;
9848;SDS011;4963;51.444;6.528;2023-07-31T09:38:25;5.60;;;3.20;;
9848;SDS011;4963;51.444;6.528;2023-07-31T09:40:54;3.45;;;3.10;;
9848;SDS011;4963;51.444;6.528;2023-07-31T09:43:21;4.78;;;3.17;;
9848;SDS011;4963;51.444;6.528;2023-07-31T09:45:54;4.55;;;3.30;;
9848;SDS011;4963;51.444;6.528;2023-07-31T09:48:22;3.67;;;3.05;;
9848;SDS011;4963;51.444;6.528;2023-07-31T09:50:52;5.65;;;3.15;;
9848;SDS011;4963;51.444;6.528;2023-07-31T09:53:19;4.38;;;2.90;;
9848;SDS011;4963;51.444;6.528;2023-07-31T09:55:56;3.65;;;3.10;;
9848;SDS011;4963;51.444;6.528;2023-07-31T09:58:24;3.85;;;3.10;;
9848;SDS011;4963;51.444;6.528;2023-07-31T10:00:54;4.93;;;3.13;;
9848;SDS011;4963;51.444;6.528;2023-07-31T10:03:23;4.70;;;3.50;;
9848;SDS011;4963;51.444;6.528;2023-07-31T10:05:52;5.28;;;3.30;;
9848;SDS011;4963;51.444;6.528;2023-07-31T10:08:21;3.92;;;3.40;;
9848;SDS011;4963;51.444;6.528;2023-07-31T10:10:58;6.65;;;3.67;;
9848;SDS011;4963;51.444;6.528;2023-07-31T10:13:27;6.40;;;3.30;;
9848;SDS011;4963;51.444;6.528;2023-07-31T10:15:56;5.93;;;3.55;;
9848;SDS011;4963;51.444;6.528;2023-07-31T10:18:26;5.53;;;3.60;;
9848;SDS011;4963;51.444;6.528;2023-07-31T10:20:54;5.57;;;3.30;;
9848;SDS011;4963;51.444;6.528;2023-07-31T10:23:22;8.40;;;3.58;;
9848;SDS011;4963;51.444;6.528;2023-07-31T10:25:50;6.28;;;3.88;;
9848;SDS011;4963;51.444;6.528;2023-07-31T10:28:21;5.50;;;3.40;;
9848;SDS011;4963;51.444;6.528;2023-07-31T10:30:51;5.93;;;3.20;;
9848;SDS011;4963;51.444;6.528;2023-07-31T10:33:18;6.80;;;3.83;;
9848;SDS011;4963;51.444;6.528;2023-07-31T10:35:46;5.15;;;3.50;;
9848;SDS011;4963;51.444;6.528;2023-07-31T10:38:14;5.68;;;4.00;;
9848;SDS011;4963;51.444;6.528;2023-07-31T10:40:41;5.72;;;3.45;;
9848;SDS011;4963;51.444;6.528;2023-07-31T10:43:09;4.57;;;3.35;;
9848;SDS011;4963;51.444;6.528;2023-07-31T10:45:52;4.47;;;3.35;;
9848;SDS011;4963;51.444;6.528;2023-07-31T10:48:20;5.70;;;3.30;;
9848;SDS011;4963;51.444;6.528;2023-07-31T10:50:48;5.93;;;3.63;;
9848;SDS011;4963;51.444;6.528;2023-07-31T10:53:22;5.10;;;3.20;;
9848;SDS011;4963;51.444;6.528;2023-07-31T10:55:50;7.03;;;3.40;;
9848;SDS011;4963;51.444;6.528;2023-07-31T10:58:18;3.83;;;3.15;;
9848;SDS011;4963;51.444;6.528;2023-07-31T11:00:47;5.68;;;3.25;;
9848;SDS011;4963;51.444;6.528;2023-07-31T11:03:15;4.38;;;3.00;;
9848;SDS011;4963;51.444;6.528;2023-07-31T11:05:46;4.25;;;3.08;;
9848;SDS011;4963;51.444;6.528;2023-07-31T11:08:14;5.05;;;3.40;;
9848;SDS011;4963;51.444;6.528;2023-07-31T11:10:42;4.30;;;2.58;;
9848;SDS011;4963;51.444;6.528;2023-07-31T11:13:10;4.57;;;3.25;;
9848;SDS011;4963;51.444;6.528;2023-07-31T11:15:37;3.67;;;3.03;;
9848;SDS011;4963;51.444;6.528;2023-07-31T11:18:05;4.45;;;2.90;;
9848;SDS011;4963;51.444;6.528;2023-07-31T11:20:33;6.05;;;3.00;;
9848;SDS011;4963;51.444;6.528;2023-07-31T11:23:01;6.45;;;3.00;;
9848;SDS011;4963;51.444;6.528;2023-07-31T11:25:29;5.43;;;3.33;;
9848;SDS011;4963;51.444;6.528;2023-07-31T11:27:57;4.38;;;3.30;;
9848;SDS011;4963;51.444;6.528;2023-07-31T11:30:24;3.83;;;2.80;;
9848;SDS011;4963;51.444;6.528;2023-07-31T11:32:51;4.45;;;3.33;;
9848;SDS011;4963;51.444;6.528;2023-07-31T11:35:19;3.95;;;3.10;;
9848;SDS011;4963;51.444;6.528;2023-07-31T11:37:46;3.60;;;2.75;;
9848;SDS011;4963;51.444;6.528;2023-07-31T11:40:13;5.53;;;3.33;;
9848;SDS011;4963;51.444;6.528;2023-07-31T11:42:40;5.95;;;3.08;;
9848;SDS011;4963;51.444;6.528;2023-07-31T11:45:08;4.40;;;3.05;;
9848;SDS011;4963;51.444;6.528;2023-07-31T11:47:35;4.05;;;3.13;;
9848;SDS011;4963;51.444;6.528;2023-07-31T11:50:04;5.20;;;2.90;;
9848;SDS011;4963;51.444;6.528;2023-07-31T11:52:35;4.18;;;3.47;;
9848;SDS011;4963;51.444;6.528;2023-07-31T11:55:05;5.35;;;2.90;;
9848;SDS011;4963;51.444;6.528;2023-07-31T11:57:36;4.72;;;3.22;;
9848;SDS011;4963;51.444;6.528;2023-07-31T12:00:04;3.28;;;2.65;;
9848;SDS011;4963;51.444;6.528;2023-07-31T12:02:33;4.95;;;2.95;;
9848;SDS011;4963;51.444;6.528;2023-07-31T12:05:00;4.28;;;3.50;;
9848;SDS011;4963;51.444;6.528;2023-07-31T12:07:27;3.88;;;3.00;;
9848;SDS011;4963;51.444;6.528;2023-07-31T12:09:55;3.58;;;3.03;;
9848;SDS011;4963;51.444;6.528;2023-07-31T12:12:23;8.32;;;3.58;;
9848;SDS011;4963;51.444;6.528;2023-07-31T12:14:50;4.75;;;3.08;;
9848;SDS011;4963;51.444;6.528;2023-07-31T12:17:18;4.70;;;2.88;;
9848;SDS011;4963;51.444;6.528;2023-07-31T12:19:48;5.70;;;2.90;;
9848;SDS011;4963;51.444;6.528;2023-07-31T12:22:15;4.13;;;2.75;;
9848;SDS011;4963;51.444;6.528;2023-07-31T12:24:43;4.43;;;2.92;;
9848;SDS011;4963;51.444;6.528;2023-07-31T12:27:12;3.80;;;2.72;;
9848;SDS011;4963;51.444;6.528;2023-07-31T12:29:41;4.07;;;2.90;;
9848;SDS011;4963;51.444;6.528;2023-07-31T12:32:19;3.33;;;2.70;;
9848;SDS011;4963;51.444;6.528;2023-07-31T12:34:47;4.07;;;2.75;;
9848;SDS011;4963;51.444;6.528;2023-07-31T12:37:14;3.45;;;2.75;;
9848;SDS011;4963;51.444;6.528;2023-07-31T12:39:41;4.40;;;2.72;;
9848;SDS011;4963;51.444;6.528;2023-07-31T12:42:08;3.67;;;2.70;;
9848;SDS011;4963;51.444;6.528;2023-07-31T12:44:36;5.35;;;3.05;;
9848;SDS011;4963;51.444;6.528;2023-07-31T12:47:03;4.03;;;2.88;;
9848;SDS011;4963;51.444;6.528;2023-07-31T12:49:30;4.65;;;2.90;;
9848;SDS011;4963;51.444;6.528;2023-07-31T12:51:57;4.45;;;2.83;;
9848;SDS011;4963;51.444;6.528;2023-07-31T12:54:24;4.32;;;3.30;;
9848;SDS011;4963;51.444;6.528;2023-07-31T12:56:51;5.05;;;3.13;;
9848;SDS011;4963;51.444;6.528;2023-07-31T12:59:18;3.95;;;2.90;;
9848;SDS011;4963;51.444;6.528;2023-07-31T13:01:46;8.63;;;3.30;;
9848;SDS011;4963;51.444;6.528;2023-07-31T13:04:13;5.18;;;3.53;;
9848;SDS011;4963;51.444;6.528;2023-07-31T13:06:40;6.43;;;3.17;;
9848;SDS011;4963;51.444;6.528;2023-07-31T13:09:06;6.55;;;3.90;;
9848;SDS011;4963;51.444;6.528;2023-07-31T13:11:34;4.65;;;4.05;;
9848;SDS011;4963;51.444;6.528;2023-07-31T13:14:01;7.40;;;4.18;;
9848;SDS011;4963;51.444;6.528;2023-07-31T13:16:28;5.40;;;3.80;;
9848;SDS011;4963;51.444;6.528;2023-07-31T13:18:56;5.95;;;3.85;;
9848;SDS011;4963;51.444;6.528;2023-07-31T13:21:23;6.70;;;3.80;;
9848;SDS011;4963;51.444;6.528;2023-07-31T13:23:50;5.10;;;3.58;;
9848;SDS011;4963;51.444;6.528;2023-07-31T13:26:16;6.47;;;4.20;;
9848;SDS011;4963;51.444;6.528;2023-07-31T13:28:43;7.75;;;4.13;;
9848;SDS011;4963;51.444;6.528;2023-07-31T13:31:10;5.07;;;3.90;;
9848;SDS011;4963;51.444;6.528;2023-07-31T13:33:37;7.65;;;4.00;;
9848;SDS011;4963;51.444;6.528;2023-07-31T13:36:05;7.00;;;4.20;;
9848;SDS011;4963;51.444;6.528;2023-07-31T13:38:32;4.78;;;4.03;;
9848;SDS011;4963;51.444;6.528;2023-07-31T13:40:59;5.38;;;3.80;;
9848;SDS011;4963;51.444;6.528;2023-07-31T13:43:26;6.35;;;3.75;;
9848;SDS011;4963;51.444;6.528;2023-07-31T13:45:53;6.72;;;3.53;;
9848;SDS011;4963;51.444;6.528;2023-07-31T13:48:21;4.50;;;3.63;;
9848;SDS011;4963;51.444;6.528;2023-07-31T13:50:47;5.75;;;3.85;;
9848;SDS011;4963;51.444;6.528;2023-07-31T13:53:16;4.72;;;3.58;;
9848;SDS011;4963;51.444;6.528;2023-07-31T13:55:43;6.72;;;3.80;;
9848;SDS011;4963;51.444;6.528;2023-07-31T13:58:10;8.70;;;4.15;;
9848;SDS011;4963;51.444;6.528;2023-07-31T14:00:37;6.57;;;4.13;;
9848;SDS011;4963;51.444;6.528;2023-07-31T14:03:04;5.22;;;4.07;;
9848;SDS011;4963;51.444;6.528;2023-07-31T14:05:31;5.70;;;3.85;;
9848;SDS011;4963;51.444;6.528;2023-07-31T14:07:58;13.27;;;4.30;;
9848;SDS011;4963;51.444;6.528;2023-07-31T14:10:26;7.10;;;4.28;;
9848;SDS011;4963;51.444;6.528;2023-07-31T14:12:53;6.35;;;4.47;;
9848;SDS011;4963;51.444;6.528;2023-07-31T14:15:20;7.60;;;3.92;;
9848;SDS011;4963;51.444;6.528;2023-07-31T14:17:47;6.22;;;4.38;;
9848;SDS011;4963;51.444;6.528;2023-07-31T14:20:14;5.97;;;4.00;;
9848;SDS011;4963;51.444;6.528;2023-07-31T14:22:41;7.90;;;4.28;;
9848;SDS011;4963;51.444;6.528;2023-07-31T14:25:08;5.85;;;4.18;;
9848;SDS011;4963;51.444;6.528;2023-07-31T14:27:36;6.40;;;3.85;;
9848;SDS011;4963;51.444;6.528;2023-07-31T14:30:04;6.57;;;4.53;;
9848;SDS011;4963;51.444;6.528;2023-07-31T14:32:31;10.18;;;4.50;;
9848;SDS011;4963;51.444;6.528;2023-07-31T14:34:58;7.47;;;4.57;;
9848;SDS011;4963;51.444;6.528;2023-07-31T14:37:25;6.47;;;4.18;;
9848;SDS011;4963;51.444;6.528;2023-07-31T14:39:53;6.28;;;4.03;;
9848;SDS011;4963;51.444;6.528;2023-07-31T14:42:21;7.30;;;4.50;;
9848;SDS011;4963;51.444;6.528;2023-07-31T14:44:49;6.40;;;4.75;;
9848;SDS011;4963;51.444;6.528;2023-07-31T14:47:16;7.32;;;4.88;;
9848;SDS011;4963;51.444;6.528;2023-07-31T14:49:43;7.18;;;4.30;;
9848;SDS011;4963;51.444;6.528;2023-07-31T14:52:10;5.70;;;4.18;;
9848;SDS011;4963;51.444;6.528;2023-07-31T14:54:36;6.22;;;4.53;;
9848;SDS011;4963;51.444;6.528;2023-07-31T14:57:04;6.75;;;4.53;;
9848;SDS011;4963;51.444;6.528;2023-07-31T14:59:31;6.30;;;4.40;;
9848;SDS011;4963;51.444;6.528;2023-07-31T15:01:59;6.35;;;4.65;;
9848;SDS011;4963;51.444;6.528;2023-07-31T15:04:26;6.50;;;4.43;;
9848;SDS011;4963;51.444;6.528;2023-07-31T15:06:53;6.82;;;4.25;;
9848;SDS011;4963;51.444;6.528;2023-07-31T15:09:21;7.10;;;4.63;;
9848;SDS011;4963;51.444;6.528;2023-07-31T15:11:47;5.90;;;4.10;;
9848;SDS011;4963;51.444;6.528;2023-07-31T15:14:14;7.20;;;4.50;;
9848;SDS011;4963;51.444;6.528;2023-07-31T15:16:41;5.60;;;4.10;;
9848;SDS011;4963;51.444;6.528;2023-07-31T15:19:09;7.60;;;4.72;;